createdAt,value
2018-06-05T00:00:57.794Z,100844.05
2018-06-05T00:03:28.664Z,100843.55
2018-06-05T00:06:29.506Z,100833.47
2018-06-05T00:09:05.071Z,100833.58
2018-06-05T00:11:36.690Z,100833.17
2018-06-05T00:14:08.072Z,100830.00
2018-06-05T00:16:42.677Z,100840.36
2018-06-05T00:19:15.305Z,100829.55
2018-06-05T00:21:47.112Z,100828.03
2018-06-05T00:24:19.174Z,100824.30
2018-06-05T00:27:05.648Z,100825.37
2018-06-05T00:29:39.754Z,100824.48
2018-06-05T00:32:11.971Z,100829.74
2018-06-05T00:34:45.191Z,100827.95
2018-06-05T00:37:22.198Z,100828.14
2018-06-05T00:39:58.319Z,100830.66
2018-06-05T00:42:37.974Z,100829.48
2018-06-05T00:45:15.521Z,100835.07
2018-06-05T00:47:51.899Z,100830.47
2018-06-05T00:50:27.967Z,100832.95
2018-06-05T00:53:01.368Z,100832.70
2018-06-05T00:55:38.306Z,100836.38
2018-06-05T00:58:11.053Z,100834.74
2018-06-05T01:00:44.470Z,100840.52
2018-06-05T01:03:16.230Z,100843.91
2018-06-05T01:05:46.873Z,100835.07
2018-06-05T01:08:20.845Z,100841.45
2018-06-05T01:10:58.035Z,100835.55
2018-06-05T01:13:32.339Z,100833.47
2018-06-05T01:16:07.866Z,100827.81
2018-06-05T01:18:39.409Z,100835.02
2018-06-05T01:21:11.272Z,100839.66
2018-06-05T01:23:48.708Z,100845.37
2018-06-05T01:26:23.243Z,100850.41
2018-06-05T01:28:54.312Z,100849.16
2018-06-05T01:31:26.134Z,100848.80
2018-06-05T01:33:58.573Z,100847.27
2018-06-05T01:36:29.674Z,100842.34
2018-06-05T01:39:00.646Z,100843.14
2018-06-05T01:41:32.437Z,100842.55
2018-06-05T01:44:03.220Z,100851.75
2018-06-05T01:46:34.528Z,100846.34
2018-06-05T01:49:06.346Z,100851.75
2018-06-05T01:51:38.379Z,100841.45
2018-06-05T01:54:32.380Z,100851.49
2018-06-05T01:57:07.316Z,100846.91
2018-06-05T01:59:39.561Z,100855.71
2018-06-05T02:02:18.308Z,100857.41
2018-06-05T02:04:51.510Z,100860.99
2018-06-05T02:07:25.445Z,100857.73
2018-06-05T02:09:56.428Z,100863.97
2018-06-05T02:12:28.205Z,100865.09
2018-06-05T02:15:23.942Z,100867.48
2018-06-05T02:17:56.562Z,100870.59
2018-06-05T02:20:27.349Z,100867.38
2018-06-05T02:22:57.830Z,100830.45
2018-06-05T02:25:29.064Z,100870.08
2018-06-05T02:28:00.682Z,100871.35
2018-06-05T02:30:32.157Z,100866.97
2018-06-05T02:33:02.749Z,100868.83
2018-06-05T02:35:37.318Z,100869.91
2018-06-05T02:38:08.765Z,100868.04
2018-06-05T02:40:45.893Z,100876.11
2018-06-05T02:43:16.873Z,100877.67
2018-06-05T02:45:48.136Z,100879.08
2018-06-05T02:48:20.322Z,100876.64
2018-06-05T02:50:51.591Z,100870.40
2018-06-05T02:53:24.452Z,100869.11
2018-06-05T02:55:57.625Z,100872.84
2018-06-05T02:58:28.274Z,100867.20
2018-06-05T03:01:00.066Z,100866.61
2018-06-05T03:03:31.893Z,100874.54
2018-06-05T03:06:02.676Z,100878.67
2018-06-05T03:08:33.322Z,100883.45
2018-06-05T03:11:04.299Z,100880.67
2018-06-05T03:13:37.385Z,100881.18
2018-06-05T03:16:11.729Z,100878.66
2018-06-05T03:18:49.705Z,100776.50
2018-06-05T03:21:35.253Z,100879.03
2018-06-05T03:24:06.862Z,100878.95
2018-06-05T03:26:39.064Z,100877.74
2018-06-05T03:29:13.535Z,100874.88
2018-06-05T03:31:44.511Z,100875.13
2018-06-05T03:34:15.803Z,100874.88
2018-06-05T03:36:48.480Z,100878.04
2018-06-05T03:39:21.316Z,100883.95
2018-06-05T03:41:53.146Z,100885.30
2018-06-05T03:44:28.023Z,100884.84
2018-06-05T03:46:59.123Z,100880.09
2018-06-05T03:49:34.755Z,100878.48
2018-06-05T03:52:05.856Z,100879.52
2018-06-05T03:54:36.647Z,100877.52
2018-06-05T03:57:08.676Z,100881.73
2018-06-05T04:02:24.139Z,100879.54
2018-06-05T04:04:54.786Z,100885.63
2018-06-05T04:07:27.670Z,100886.80
2018-06-05T04:10:02.149Z,100886.09
2018-06-05T04:12:34.666Z,100886.87
2018-06-05T04:17:55.555Z,100882.10
2018-06-05T04:20:26.216Z,100891.04
2018-06-05T04:22:56.882Z,100887.45
2018-06-05T04:25:30.785Z,100882.91
2018-06-05T04:28:04.136Z,100772.67
2018-06-05T04:30:37.693Z,100884.78
2018-06-05T04:33:10.235Z,100887.81
2018-06-05T04:35:44.030Z,100893.98
2018-06-05T04:38:15.177Z,100893.56
2018-06-05T04:40:47.705Z,100888.64
2018-06-05T04:43:21.656Z,100893.94
2018-06-05T04:45:54.522Z,100891.81
2018-06-05T04:48:29.641Z,100889.11
2018-06-05T04:53:27.124Z,100897.61
2018-06-05T04:56:02.413Z,100890.86
2018-06-05T04:58:35.988Z,100900.12
2018-06-05T05:01:08.097Z,100901.00
2018-06-05T05:03:39.171Z,100894.97
2018-06-05T05:08:40.723Z,100906.52
2018-06-05T05:11:12.987Z,100909.62
2018-06-05T05:13:44.656Z,100907.38
2018-06-05T05:16:16.310Z,100916.77
2018-06-05T05:18:47.965Z,100910.67
2018-06-05T05:21:19.533Z,100912.13
2018-06-05T05:23:52.288Z,100915.05
2018-06-05T05:26:26.630Z,100910.27
2018-06-05T05:28:58.293Z,100907.71
2018-06-05T05:34:18.244Z,100910.42
2018-06-05T05:36:59.058Z,100909.05
2018-06-05T05:39:34.117Z,100913.97
2018-06-05T05:42:21.041Z,100911.94
2018-06-05T05:44:53.362Z,100902.84
2018-06-05T05:47:29.463Z,100909.48
2018-06-05T05:50:17.557Z,100909.78
2018-06-05T05:52:56.683Z,100906.77
2018-06-05T05:55:28.277Z,100908.25
2018-06-05T05:58:02.259Z,100911.20
2018-06-05T06:00:42.728Z,100912.13
2018-06-05T06:03:20.995Z,100908.88
2018-06-05T06:05:59.600Z,100911.02
2018-06-05T06:08:34.826Z,100908.36
2018-06-05T06:11:13.272Z,100912.84
2018-06-05T06:13:51.751Z,100906.39
2018-06-05T06:16:31.689Z,100910.84
2018-06-05T06:19:05.246Z,100914.02
2018-06-05T06:21:41.943Z,100910.33
2018-06-05T06:24:25.471Z,100920.55
2018-06-05T06:26:57.818Z,100918.36
2018-06-05T06:29:30.419Z,100923.03
2018-06-05T06:32:02.788Z,100929.80
2018-06-05T06:37:31.687Z,100926.48
2018-06-05T06:40:03.484Z,100929.91
2018-06-05T06:42:34.147Z,100924.02
2018-06-05T06:45:25.645Z,100931.28
2018-06-05T06:47:58.917Z,100936.02
2018-06-05T06:50:30.403Z,100932.48
2018-06-05T06:53:05.398Z,100930.84
2018-06-05T06:55:39.229Z,100928.59
2018-06-05T06:58:09.837Z,100932.50
2018-06-05T07:00:45.376Z,100928.48
2018-06-05T07:03:17.041Z,100933.82
2018-06-05T07:05:49.876Z,100935.75
2018-06-05T07:08:23.977Z,100939.91
2018-06-05T07:14:07.081Z,100951.38
2018-06-05T07:16:39.819Z,100950.06
2018-06-05T07:19:12.366Z,100948.80
2018-06-05T07:21:51.411Z,100946.55
2018-06-05T07:24:23.144Z,100946.49
2018-06-05T07:26:55.216Z,100946.84
2018-06-05T07:29:28.033Z,100951.98
2018-06-05T07:32:01.791Z,100952.58
2018-06-05T07:34:33.482Z,100962.77
2018-06-05T07:37:04.670Z,100964.17
2018-06-05T07:39:37.825Z,100962.63
2018-06-05T07:42:10.792Z,100960.73
2018-06-05T07:44:43.826Z,100960.08
2018-06-05T07:47:22.500Z,100964.47
2018-06-05T07:49:58.685Z,100955.39
2018-06-05T07:52:38.106Z,100957.83
2018-06-05T07:55:11.019Z,100958.05
2018-06-05T07:57:41.513Z,100962.63
2018-06-05T08:00:31.195Z,100959.28
2018-06-05T08:03:03.676Z,100958.97
2018-06-05T08:05:37.211Z,100961.78
2018-06-05T08:08:09.500Z,100964.90
2018-06-05T08:10:44.017Z,100978.39
2018-06-05T08:13:15.400Z,100969.77
2018-06-05T08:16:00.566Z,100967.94
2018-06-05T08:18:32.242Z,100962.30
2018-06-05T08:21:05.582Z,100963.42
2018-06-05T08:23:45.040Z,100957.55
2018-06-05T08:26:18.574Z,100959.68
2018-06-05T08:28:52.786Z,100960.90
2018-06-05T08:31:25.500Z,100970.05
2018-06-05T08:34:05.089Z,100965.48
2018-06-05T08:36:37.250Z,100968.61
2018-06-05T08:39:09.133Z,100964.64
2018-06-05T08:41:42.195Z,100967.98
2018-06-05T08:44:12.812Z,100970.74
2018-06-05T08:46:43.709Z,100971.95
2018-06-05T08:49:17.923Z,100978.50
2018-06-05T08:51:51.614Z,100980.36
2018-06-05T08:54:29.777Z,100980.02
2018-06-05T08:57:01.328Z,100986.89
2018-06-05T08:59:33.270Z,100991.09
2018-06-05T09:02:09.696Z,100989.49
2018-06-05T09:04:41.334Z,100990.40
2018-06-05T09:07:21.567Z,100987.11
2018-06-05T09:09:57.401Z,100985.61
2018-06-05T09:12:31.248Z,100990.90
2018-06-05T09:15:08.340Z,100994.69
2018-06-05T09:17:40.300Z,100987.75
2018-06-05T09:20:12.753Z,100988.53
2018-06-05T09:22:48.215Z,100987.22
2018-06-05T09:25:24.638Z,100992.41
2018-06-05T09:27:57.131Z,100993.52
2018-06-05T09:30:29.504Z,100994.48
2018-06-05T09:33:02.291Z,100995.19
2018-06-05T09:35:33.840Z,100994.00
2018-06-05T09:38:06.927Z,100997.09
2018-06-05T09:40:39.956Z,101006.52
2018-06-05T09:43:13.991Z,100824.81
2018-06-05T09:45:47.034Z,101011.45
2018-06-05T09:48:19.200Z,101007.55
2018-06-05T09:50:53.184Z,101008.25
2018-06-05T09:53:24.738Z,101007.45
2018-06-05T09:55:57.913Z,101007.34
2018-06-05T09:58:43.441Z,101008.03
2018-06-05T10:01:17.190Z,101006.19
2018-06-05T10:03:48.275Z,101014.24
2018-06-05T10:06:22.639Z,101006.84
2018-06-05T10:08:58.471Z,101010.81
2018-06-05T10:11:30.399Z,101016.14
2018-06-05T10:14:02.249Z,101015.82
2018-06-05T10:19:22.989Z,101005.61
2018-06-05T10:21:54.851Z,101013.31
2018-06-05T10:27:08.790Z,101005.91
2018-06-05T10:29:52.340Z,101005.39
2018-06-05T10:32:36.328Z,101004.96
2018-06-05T10:35:16.710Z,101003.91
2018-06-05T10:40:42.967Z,101002.47
2018-06-05T10:43:21.254Z,101005.01
2018-06-05T10:45:58.630Z,101002.83
2018-06-05T10:48:57.336Z,100994.25
2018-06-05T10:51:39.411Z,100999.87
2018-06-05T10:54:25.403Z,101000.41
2018-06-05T10:57:02.451Z,100991.19
2018-06-05T11:02:46.069Z,100925.34
2018-06-05T11:05:21.832Z,100990.89
2018-06-05T11:07:53.598Z,100987.78
2018-06-05T11:10:25.894Z,100988.83
2018-06-05T11:12:59.659Z,100990.39
2018-06-05T11:15:50.442Z,100994.78
2018-06-05T11:18:22.581Z,100983.47
2018-06-05T11:20:56.787Z,100986.13
2018-06-05T11:23:28.963Z,100976.83
2018-06-05T11:26:00.994Z,100979.83
2018-06-05T11:28:48.327Z,100987.17
2018-06-05T11:31:26.351Z,100976.78
2018-06-05T11:34:00.936Z,100975.21
2018-06-05T11:36:39.646Z,100977.59
2018-06-05T11:39:24.705Z,100980.70
2018-06-05T11:41:58.038Z,100976.83
2018-06-05T11:47:16.736Z,100967.77
2018-06-05T11:50:10.984Z,100965.57
2018-06-05T11:52:48.247Z,100959.06
2018-06-05T11:55:29.442Z,100952.58
2018-06-05T11:58:26.392Z,100957.70
2018-06-05T12:01:07.179Z,100958.90
2018-06-05T12:03:40.864Z,100955.05
2018-06-05T12:06:16.744Z,100954.85
2018-06-05T12:08:56.521Z,100952.95
2018-06-05T12:11:34.076Z,100958.45
2018-06-05T12:14:09.847Z,100955.11
2018-06-05T12:16:48.344Z,100950.62
2018-06-05T12:19:28.100Z,100945.09
2018-06-05T12:22:00.422Z,100951.48
2018-06-05T12:24:31.681Z,100951.23
2018-06-05T12:27:14.151Z,100943.98
2018-06-05T12:30:13.121Z,100946.38
2018-06-05T12:32:58.463Z,100937.00
2018-06-05T12:38:17.362Z,100929.11
2018-06-05T12:40:54.384Z,100933.77
2018-06-05T12:43:29.197Z,100927.08
2018-06-05T12:46:02.109Z,100924.11
2018-06-05T12:48:40.195Z,100925.34
2018-06-05T12:51:27.517Z,100920.28
2018-06-05T12:53:58.947Z,100921.19
2018-06-05T12:56:37.636Z,100919.53
2018-06-05T12:59:25.427Z,100924.34
2018-06-05T13:01:59.722Z,100923.05
2018-06-05T13:04:36.173Z,100921.55
2018-06-05T13:07:12.010Z,100919.13
2018-06-05T13:09:57.554Z,100917.66
2018-06-05T13:12:33.855Z,100916.05
2018-06-05T13:15:15.095Z,100910.17
2018-06-05T13:17:52.603Z,100910.80
2018-06-05T13:23:13.795Z,100914.80
2018-06-05T13:25:52.344Z,100908.28
2018-06-05T13:28:27.101Z,100906.54
2018-06-05T13:31:00.302Z,100905.84
2018-06-05T13:33:41.361Z,100906.27
2018-06-05T13:36:14.832Z,100896.89
2018-06-05T13:38:59.485Z,100897.54
2018-06-05T13:41:32.615Z,100890.76
2018-06-05T13:44:06.311Z,100893.59
2018-06-05T13:46:41.655Z,100885.94
2018-06-05T13:49:18.892Z,100889.02
2018-06-05T13:52:07.022Z,100887.95
2018-06-05T13:54:45.719Z,100888.75
2018-06-05T13:57:24.046Z,100886.84
2018-06-05T14:00:00.788Z,100881.00
2018-06-05T14:02:48.274Z,100882.45
2018-06-05T14:05:28.898Z,100879.20
2018-06-05T14:08:06.427Z,100879.73
2018-06-05T14:10:40.921Z,100877.82
2018-06-05T14:13:25.446Z,100876.05
2018-06-05T14:16:12.204Z,100876.03
2018-06-05T14:18:51.454Z,100875.69
2018-06-05T14:21:30.913Z,100870.22
2018-06-05T14:24:46.130Z,100872.53
2018-06-05T14:27:26.294Z,100868.29
2018-06-05T14:30:06.598Z,100867.98
2018-06-05T14:32:38.483Z,100867.48
2018-06-05T14:35:09.599Z,100864.33
2018-06-05T14:37:42.581Z,100866.28
2018-06-05T14:40:16.534Z,100857.87
2018-06-05T14:42:49.813Z,100856.88
2018-06-05T14:45:21.666Z,100851.77
2018-06-05T14:47:54.281Z,100855.03
2018-06-05T14:50:35.792Z,100861.97
2018-06-05T14:56:49.818Z,100851.33
2018-06-05T14:59:27.398Z,100852.94
2018-06-05T15:02:08.771Z,100848.84
2018-06-05T15:04:55.302Z,100846.86
2018-06-05T15:10:14.979Z,100843.27
2018-06-05T15:12:51.201Z,100841.61
2018-06-05T15:15:28.616Z,100840.47
2018-06-05T15:18:07.330Z,100843.02
2018-06-05T15:20:52.583Z,100842.66
2018-06-05T15:23:26.985Z,100837.73
2018-06-05T15:26:03.102Z,100835.41
2018-06-05T15:28:36.033Z,100829.31
2018-06-05T15:31:09.056Z,100825.66
2018-06-05T15:33:40.486Z,100819.77
2018-06-05T15:36:12.959Z,100821.92
2018-06-05T15:38:46.393Z,100819.67
2018-06-05T15:41:18.168Z,100820.81
2018-06-05T15:43:57.278Z,100817.70
2018-06-05T15:46:29.201Z,100756.28
2018-06-05T15:49:05.526Z,100808.78
2018-06-05T15:51:36.897Z,100807.79
2018-06-05T15:54:17.872Z,100807.80
2018-06-05T15:56:51.060Z,100799.56
2018-06-05T15:59:22.545Z,100804.02
2018-06-05T16:01:54.382Z,100796.59
2018-06-05T16:04:25.740Z,100800.68
2018-06-05T16:06:58.998Z,100803.40
2018-06-05T16:09:30.692Z,100790.22
2018-06-05T16:12:02.288Z,100791.89
2018-06-05T16:14:39.091Z,100783.56
2018-06-05T16:17:16.594Z,100791.16
2018-06-05T16:19:51.161Z,100785.11
2018-06-05T16:22:27.147Z,100784.72
2018-06-05T16:25:01.776Z,100779.48
2018-06-05T16:27:35.138Z,100784.62
2018-06-05T16:30:09.254Z,100775.70
2018-06-05T16:32:48.810Z,100777.77
2018-06-05T16:35:22.973Z,100774.88
2018-06-05T16:37:55.912Z,100777.82
2018-06-05T16:40:26.774Z,100775.94
2018-06-05T16:43:01.023Z,100780.59
2018-06-05T16:45:38.648Z,100772.44
2018-06-05T16:48:18.469Z,100773.55
2018-06-05T16:53:51.693Z,100768.69
2018-06-05T16:56:38.933Z,100763.78
2018-06-05T16:59:27.352Z,100762.25
2018-06-05T17:02:20.852Z,100762.56
2018-06-05T17:05:02.444Z,100758.39
2018-06-05T17:07:41.951Z,100765.26
2018-06-05T17:10:34.266Z,100763.74
2018-06-05T17:13:16.439Z,100765.72
2018-06-05T17:15:49.573Z,100757.52
2018-06-05T17:18:28.486Z,100758.92
2018-06-05T17:21:06.876Z,100761.36
2018-06-05T17:23:41.017Z,100756.66
2018-06-05T17:26:25.731Z,100762.02
2018-06-05T17:29:22.369Z,100757.56
2018-06-05T17:32:02.798Z,100751.28
2018-06-05T17:34:37.362Z,100759.84
2018-06-05T17:37:14.184Z,100759.41
2018-06-05T17:39:49.060Z,100754.63
2018-06-05T17:42:31.762Z,100754.63
2018-06-05T17:45:21.309Z,100752.33
2018-06-05T17:48:00.845Z,100761.41
2018-06-05T17:55:33.960Z,100766.95
2018-06-05T17:58:14.718Z,100768.53
2018-06-05T18:00:54.588Z,100759.53
2018-06-05T18:03:29.926Z,100762.77
2018-06-05T18:06:07.363Z,100766.45
2018-06-05T18:08:43.479Z,100764.57
2018-06-05T18:11:22.297Z,100768.08
2018-06-05T18:13:56.532Z,100777.86
2018-06-05T18:16:35.140Z,100768.93
2018-06-05T18:19:10.624Z,100776.77
2018-06-05T18:21:46.299Z,100779.37
2018-06-05T18:24:23.001Z,100778.37
2018-06-05T18:26:55.723Z,100785.44
2018-06-05T18:29:32.600Z,100782.94
2018-06-05T18:32:17.706Z,100789.16
2018-06-05T18:34:58.485Z,100790.28
2018-06-05T18:37:50.227Z,100794.35
2018-06-05T18:40:30.579Z,100797.66
2018-06-05T18:43:05.255Z,100797.59
2018-06-05T18:45:50.310Z,100796.34
2018-06-05T18:48:43.393Z,100795.19
2018-06-05T18:51:16.421Z,100794.18
2018-06-05T18:56:47.090Z,100805.88
2018-06-05T18:59:19.185Z,100800.76
2018-06-05T19:01:54.476Z,100797.64
2018-06-05T19:04:30.437Z,100805.22
2018-06-05T19:07:07.946Z,100803.79
2018-06-05T19:09:41.982Z,100799.45
2018-06-05T19:12:36.425Z,100809.00
2018-06-05T19:15:22.698Z,100814.83
2018-06-05T19:17:58.635Z,100769.06
2018-06-05T19:20:35.023Z,100816.41
2018-06-05T19:23:17.114Z,100816.83
2018-06-05T19:25:56.009Z,100828.05
2018-06-05T19:28:35.365Z,100827.62
2018-06-05T19:33:56.564Z,100837.16
2018-06-05T19:39:46.002Z,100844.90
2018-06-05T19:42:21.593Z,100846.25
2018-06-05T19:45:06.828Z,100853.66
2018-06-05T19:52:50.508Z,100852.30
2018-06-05T19:55:28.236Z,100849.53
2018-06-05T19:58:12.533Z,100852.33
2018-06-05T20:00:54.080Z,100863.83
2018-06-05T20:03:32.971Z,100864.03
2018-06-05T20:06:10.215Z,100864.23
2018-06-05T20:08:46.762Z,100863.08
2018-06-05T20:11:23.922Z,100860.99
2018-06-05T20:14:07.446Z,100865.35
2018-06-05T20:16:44.535Z,100870.66
2018-06-05T20:19:23.954Z,100869.09
2018-06-05T20:22:08.183Z,100875.01
2018-06-05T20:25:00.867Z,100876.66
2018-06-05T20:27:37.401Z,100870.73
2018-06-05T20:32:58.643Z,100874.56
2018-06-05T20:35:36.467Z,100873.73
2018-06-05T20:38:09.632Z,100879.21
2018-06-05T20:40:45.301Z,100871.44
2018-06-05T20:43:19.227Z,100871.44
2018-06-05T20:45:54.491Z,100814.88
2018-06-05T20:48:30.095Z,100877.59
2018-06-05T20:51:04.172Z,100877.56
2018-06-05T20:54:11.272Z,100878.42
2018-06-05T20:56:49.585Z,100876.11
2018-06-05T20:59:22.813Z,100881.19
2018-06-05T21:02:13.735Z,100888.53
2018-06-05T21:04:49.241Z,100898.47
2018-06-05T21:07:37.060Z,100896.84
2018-06-05T21:10:09.853Z,100896.98
2018-06-05T21:12:43.068Z,100890.96
2018-06-05T21:15:29.141Z,100845.77
2018-06-05T21:18:15.656Z,100891.42
2018-06-05T21:20:57.073Z,100898.25
2018-06-05T21:23:49.103Z,100899.97
2018-06-05T21:26:24.287Z,100898.94
2018-06-05T21:28:57.318Z,100896.23
2018-06-05T21:31:36.460Z,100896.19
2018-06-05T21:34:14.730Z,100894.50
2018-06-05T21:36:59.556Z,100891.70
2018-06-05T21:39:37.351Z,100889.13
2018-06-05T21:42:11.458Z,100892.19
2018-06-05T21:44:46.210Z,100883.83
2018-06-05T21:47:21.744Z,100890.08
2018-06-05T21:49:56.028Z,100890.64
2018-06-05T21:52:28.219Z,100892.30
2018-06-05T21:55:03.060Z,100891.37
2018-06-05T21:57:41.282Z,100892.84
2018-06-05T22:00:28.287Z,100896.44
2018-06-05T22:05:41.925Z,100882.82
2018-06-05T22:08:15.872Z,100883.50
2018-06-05T22:10:51.107Z,100878.13
2018-06-05T22:13:24.722Z,100874.30
2018-06-05T22:16:05.711Z,100883.44
2018-06-05T22:18:45.382Z,100881.53
2018-06-05T22:21:22.031Z,100886.15
2018-06-05T22:23:56.611Z,100884.45
2018-06-05T22:29:58.125Z,100889.50
2018-06-05T22:32:41.815Z,100886.64
2018-06-05T22:35:18.680Z,100879.34
2018-06-05T22:37:55.197Z,100872.09
2018-06-05T22:40:34.409Z,100881.77
2018-06-05T22:43:06.013Z,100881.80
2018-06-05T22:45:46.363Z,100879.67
2018-06-05T22:48:25.422Z,100883.63
2018-06-05T22:50:57.459Z,100876.53
2018-06-05T22:53:35.743Z,100876.39
2018-06-05T22:56:08.856Z,100874.66
2018-06-05T22:58:47.491Z,100881.55
2018-06-05T23:01:22.603Z,100880.59
2018-06-05T23:04:04.241Z,100886.91
2018-06-05T23:06:40.251Z,100877.75
2018-06-05T23:09:15.563Z,100882.62
2018-06-05T23:11:50.234Z,100875.72
2018-06-05T23:14:23.619Z,100879.00
2018-06-05T23:17:09.657Z,100874.69
2018-06-05T23:19:43.269Z,100880.61
2018-06-05T23:22:14.359Z,100878.81
2018-06-05T23:24:52.120Z,100873.45
2018-06-05T23:27:25.547Z,100877.07
2018-06-05T23:29:56.751Z,100873.93
2018-06-05T23:32:40.050Z,100872.17
2018-06-05T23:35:14.804Z,100875.13
2018-06-05T23:37:52.414Z,100884.41
2018-06-05T23:40:28.021Z,100887.04
2018-06-05T23:42:59.355Z,100883.23
2018-06-05T23:45:38.679Z,100881.27
2018-06-05T23:48:09.479Z,100883.39
2018-06-05T23:50:42.689Z,100874.81
2018-06-05T23:53:14.719Z,100876.48
2018-06-05T23:55:46.490Z,100878.34
2018-06-05T23:58:17.132Z,100877.77
